createdAt,value
2019-03-04T00:01:03.985Z,2.15
2019-03-04T00:03:31.802Z,1.82
2019-03-04T00:05:59.502Z,1.80
2019-03-04T00:08:27.509Z,1.70
2019-03-04T00:10:56.126Z,1.80
2019-03-04T00:13:24.277Z,2.22
2019-03-04T00:15:52.027Z,1.60
2019-03-04T00:18:20.674Z,1.60
2019-03-04T00:20:48.315Z,1.92
2019-03-04T00:23:16.297Z,1.62
2019-03-04T00:25:43.958Z,1.75
2019-03-04T00:28:11.603Z,1.90
2019-03-04T00:30:40.393Z,1.47
2019-03-04T00:33:08.012Z,1.50
2019-03-04T00:35:35.642Z,1.60
2019-03-04T00:38:04.364Z,1.50
2019-03-04T00:40:31.952Z,1.52
2019-03-04T00:42:59.786Z,1.57
2019-03-04T00:45:27.453Z,1.50
2019-03-04T00:47:55.232Z,1.50
2019-03-04T00:50:22.914Z,1.70
2019-03-04T00:52:50.640Z,1.80
2019-03-04T00:55:18.423Z,2.02
2019-03-04T00:57:46.173Z,1.75
2019-03-04T01:00:17.040Z,1.90
2019-03-04T01:02:44.711Z,1.55
2019-03-04T01:05:12.660Z,1.70
2019-03-04T01:07:40.327Z,1.85
2019-03-04T01:10:11.674Z,1.70
2019-03-04T01:12:39.365Z,1.50
2019-03-04T01:15:09.948Z,1.75
2019-03-04T01:17:37.780Z,1.67
2019-03-04T01:20:06.437Z,1.80
2019-03-04T01:22:34.152Z,1.87
2019-03-04T01:25:01.845Z,1.90
2019-03-04T01:27:29.486Z,1.90
2019-03-04T01:29:57.486Z,1.80
2019-03-04T01:32:25.222Z,1.67
2019-03-04T01:34:52.922Z,1.77
2019-03-04T01:37:20.591Z,1.72
2019-03-04T01:39:48.295Z,1.67
2019-03-04T01:42:15.938Z,1.65
2019-03-04T01:44:43.668Z,1.92
2019-03-04T01:47:11.310Z,1.90
2019-03-04T01:49:38.991Z,1.37
2019-03-04T01:52:06.638Z,1.90
2019-03-04T01:54:34.267Z,1.60
2019-03-04T01:57:02.843Z,1.60
2019-03-04T01:59:30.525Z,1.45
2019-03-04T02:01:58.220Z,1.45
2019-03-04T02:04:25.888Z,1.62
2019-03-04T02:06:53.592Z,1.90
2019-03-04T02:09:21.394Z,1.50
2019-03-04T02:11:49.120Z,2.25
2019-03-04T02:14:16.731Z,1.62
2019-03-04T02:16:44.352Z,1.65
2019-03-04T02:19:12.068Z,1.42
2019-03-04T02:21:39.804Z,2.00
2019-03-04T02:24:22.113Z,1.80
2019-03-04T02:26:49.831Z,1.85
2019-03-04T02:29:17.455Z,1.85
2019-03-04T02:31:45.122Z,1.90
2019-03-04T02:34:12.787Z,1.77
2019-03-04T02:36:40.478Z,2.00
2019-03-04T02:39:08.139Z,2.02
2019-03-04T02:41:37.326Z,1.60
2019-03-04T02:44:07.890Z,1.80
2019-03-04T02:46:35.439Z,1.77
2019-03-04T02:49:03.496Z,1.90
2019-03-04T02:51:31.087Z,1.82
2019-03-04T02:53:58.726Z,1.75
2019-03-04T02:56:26.369Z,2.30
2019-03-04T02:58:54.311Z,2.00
2019-03-04T03:01:22.045Z,1.40
2019-03-04T03:03:49.986Z,1.85
2019-03-04T03:06:17.837Z,1.77
2019-03-04T03:08:45.470Z,1.62
2019-03-04T03:11:14.051Z,1.87
2019-03-04T03:13:41.655Z,2.22
2019-03-04T03:16:09.247Z,1.90
2019-03-04T03:18:36.982Z,1.60
2019-03-04T03:21:04.610Z,2.05
2019-03-04T03:23:32.276Z,2.02
2019-03-04T03:25:59.877Z,1.70
2019-03-04T03:28:27.554Z,2.10
2019-03-04T03:30:55.129Z,1.70
2019-03-04T03:33:22.755Z,1.70
2019-03-04T03:35:50.408Z,1.65
2019-03-04T03:38:18.053Z,1.70
2019-03-04T03:40:45.733Z,1.87
2019-03-04T03:43:13.287Z,1.52
2019-03-04T03:45:40.889Z,1.80
2019-03-04T03:48:08.704Z,1.95
2019-03-04T03:50:36.343Z,1.62
2019-03-04T03:53:03.937Z,1.52
2019-03-04T03:55:31.672Z,1.65
2019-03-04T03:57:59.337Z,1.42
2019-03-04T04:00:26.988Z,1.62
2019-03-04T04:02:54.551Z,1.82
2019-03-04T04:05:22.211Z,1.70
2019-03-04T04:07:49.812Z,1.80
2019-03-04T04:10:17.395Z,1.42
2019-03-04T04:12:45.129Z,1.65
2019-03-04T04:15:12.950Z,1.70
2019-03-04T04:17:40.584Z,1.50
2019-03-04T04:20:08.510Z,1.47
2019-03-04T04:22:36.302Z,1.60
2019-03-04T04:25:04.054Z,1.60
2019-03-04T04:27:31.780Z,1.60
2019-03-04T04:29:59.457Z,1.75
2019-03-04T04:32:27.081Z,1.80
2019-03-04T04:34:55.665Z,1.52
2019-03-04T04:37:23.313Z,1.62
2019-03-04T04:39:50.995Z,1.62
2019-03-04T04:42:18.655Z,1.75
2019-03-04T04:44:46.283Z,1.20
2019-03-04T04:47:13.949Z,1.40
2019-03-04T04:49:41.460Z,1.55
2019-03-04T04:52:09.102Z,1.35
2019-03-04T04:54:36.657Z,1.42
2019-03-04T04:57:04.330Z,1.75
2019-03-04T04:59:31.931Z,1.65
2019-03-04T05:01:59.537Z,1.95
2019-03-04T05:04:27.185Z,1.62
2019-03-04T05:06:54.931Z,1.72
2019-03-04T05:09:22.546Z,2.00
2019-03-04T05:11:51.041Z,1.60
2019-03-04T05:14:18.655Z,1.70
2019-03-04T05:16:46.304Z,1.75
2019-03-04T05:19:13.975Z,1.92
2019-03-04T05:21:41.659Z,1.60
2019-03-04T05:24:09.322Z,1.80
2019-03-04T05:26:37.095Z,1.50
2019-03-04T05:29:04.885Z,1.70
2019-03-04T05:31:32.534Z,1.62
2019-03-04T05:34:00.146Z,2.12
2019-03-04T05:36:27.837Z,1.45
2019-03-04T05:38:55.496Z,1.80
2019-03-04T05:41:23.089Z,1.60
2019-03-04T05:43:52.630Z,1.75
2019-03-04T05:46:20.120Z,1.60
2019-03-04T05:48:47.797Z,1.67
2019-03-04T05:51:15.468Z,1.55
2019-03-04T05:53:43.159Z,1.47
2019-03-04T05:56:10.747Z,1.50
2019-03-04T05:58:38.351Z,1.57
2019-03-04T06:01:19.343Z,1.70
2019-03-04T06:03:47.782Z,1.90
2019-03-04T06:06:18.019Z,1.70
2019-03-04T06:08:46.688Z,1.72
2019-03-04T06:11:14.268Z,1.70
2019-03-04T06:13:41.850Z,1.98
2019-03-04T06:16:09.659Z,2.00
2019-03-04T06:18:37.289Z,1.90
2019-03-04T06:21:05.146Z,1.80
2019-03-04T06:23:32.902Z,1.85
2019-03-04T06:26:00.742Z,1.75
2019-03-04T06:28:28.399Z,1.52
2019-03-04T06:30:56.008Z,2.10
2019-03-04T06:33:23.659Z,1.90
2019-03-04T06:35:51.291Z,1.98
2019-03-04T06:38:19.050Z,2.20
2019-03-04T06:40:46.788Z,2.00
2019-03-04T06:43:14.394Z,2.25
2019-03-04T06:45:42.039Z,1.72
2019-03-04T06:48:09.590Z,1.92
2019-03-04T06:50:51.468Z,1.90
2019-03-04T06:53:49.435Z,2.47
2019-03-04T06:56:30.231Z,1.75
2019-03-04T06:59:04.411Z,2.08
2019-03-04T07:01:42.506Z,1.80
2019-03-04T07:04:32.095Z,1.70
2019-03-04T07:07:00.512Z,1.72
2019-03-04T07:09:28.329Z,1.60
2019-03-04T07:11:56.107Z,1.20
2019-03-04T07:14:23.718Z,1.20
2019-03-04T07:16:52.069Z,1.00
2019-03-04T07:19:30.136Z,1.40
2019-03-04T07:21:58.201Z,1.20
2019-03-04T07:24:25.903Z,0.95
2019-03-04T07:26:53.852Z,1.27
2019-03-04T07:29:21.504Z,1.15
2019-03-04T07:31:49.275Z,1.30
2019-03-04T07:34:17.028Z,1.20
2019-03-04T07:36:44.703Z,1.30
2019-03-04T07:39:13.924Z,1.07
2019-03-04T07:41:52.494Z,1.10
2019-03-04T07:44:21.115Z,1.10
2019-03-04T07:46:48.644Z,1.10
2019-03-04T07:49:16.329Z,1.22
2019-03-04T07:51:44.000Z,1.17
2019-03-04T07:54:11.662Z,1.05
2019-03-04T07:56:39.281Z,1.07
2019-03-04T07:59:07.247Z,1.07
2019-03-04T08:01:34.945Z,1.10
2019-03-04T08:04:02.987Z,1.00
2019-03-04T08:06:30.753Z,1.07
2019-03-04T08:09:18.143Z,1.17
2019-03-04T08:12:13.371Z,0.95
2019-03-04T08:14:41.037Z,0.90
2019-03-04T08:17:09.873Z,1.00
2019-03-04T08:19:37.723Z,1.20
2019-03-04T08:22:05.337Z,1.10
2019-03-04T08:24:33.312Z,0.62
2019-03-04T08:27:00.914Z,0.90
2019-03-04T08:29:28.574Z,0.78
2019-03-04T08:31:56.217Z,1.07
2019-03-04T08:34:30.828Z,0.70
2019-03-04T08:36:53.542Z,1.10
2019-03-04T08:39:22.892Z,0.98
2019-03-04T08:41:50.859Z,0.95
2019-03-04T08:44:18.826Z,1.12
2019-03-04T08:46:46.467Z,0.70
2019-03-04T08:49:14.211Z,0.88
2019-03-04T08:51:47.923Z,1.00
2019-03-04T08:54:15.726Z,0.88
2019-03-04T08:56:43.848Z,0.78
2019-03-04T08:59:11.558Z,0.80
2019-03-04T09:01:39.385Z,0.90
2019-03-04T09:04:07.372Z,0.62
2019-03-04T09:06:35.334Z,0.80
2019-03-04T09:09:06.692Z,0.82
2019-03-04T09:11:49.114Z,1.00
2019-03-04T09:14:19.987Z,0.65
2019-03-04T09:16:47.720Z,0.80
2019-03-04T09:19:15.490Z,1.12
2019-03-04T09:21:43.291Z,0.80
2019-03-04T09:24:12.078Z,0.80
2019-03-04T09:26:39.863Z,1.00
2019-03-04T09:29:07.591Z,0.85
2019-03-04T09:32:15.406Z,0.75
2019-03-04T09:34:43.140Z,0.70
2019-03-04T09:37:11.650Z,0.80
2019-03-04T09:39:39.345Z,0.85
2019-03-04T09:42:22.276Z,0.70
2019-03-04T09:44:49.928Z,1.02
2019-03-04T09:47:31.907Z,0.70
2019-03-04T09:50:01.587Z,0.70
2019-03-04T09:52:29.508Z,1.05
2019-03-04T09:54:57.359Z,0.70
2019-03-04T09:57:25.077Z,0.60
2019-03-04T09:59:53.025Z,1.00
2019-03-04T10:02:32.242Z,0.53
2019-03-04T10:05:40.699Z,0.85
2019-03-04T10:08:33.392Z,0.90
2019-03-04T10:11:36.849Z,0.70
2019-03-04T10:14:35.849Z,0.70
2019-03-04T10:17:49.135Z,0.60
2019-03-04T10:20:49.714Z,0.70
2019-03-04T10:24:14.855Z,0.70
2019-03-04T10:27:13.336Z,0.57
2019-03-04T10:30:23.065Z,0.45
2019-03-04T10:33:14.289Z,0.75
2019-03-04T10:36:07.067Z,0.68
2019-03-04T10:39:22.389Z,0.78
2019-03-04T10:42:42.196Z,0.57
2019-03-04T10:46:20.921Z,0.70
2019-03-04T10:48:48.807Z,0.68
2019-03-04T10:51:18.662Z,1.10
2019-03-04T10:53:46.320Z,1.00
2019-03-04T10:56:16.101Z,0.80
2019-03-04T10:58:44.294Z,1.00
2019-03-04T11:01:12.247Z,0.78
2019-03-04T11:03:40.380Z,1.10
2019-03-04T11:06:08.100Z,1.07
2019-03-04T11:08:35.797Z,0.85
2019-03-04T11:11:03.502Z,0.78
2019-03-04T11:13:31.179Z,1.00
2019-03-04T11:15:58.916Z,0.75
2019-03-04T11:18:26.860Z,1.40
2019-03-04T11:20:59.460Z,1.45
2019-03-04T11:23:27.914Z,0.90
2019-03-04T11:25:55.852Z,1.30
2019-03-04T11:28:24.302Z,0.93
2019-03-04T11:30:52.007Z,0.70
2019-03-04T11:33:19.927Z,0.85
2019-03-04T11:35:47.893Z,0.70
2019-03-04T11:38:55.635Z,0.80
2019-03-04T11:41:23.515Z,1.07
2019-03-04T11:43:51.323Z,1.17
2019-03-04T11:46:21.865Z,1.22
2019-03-04T11:48:49.738Z,0.90
2019-03-04T11:51:17.414Z,1.00
2019-03-04T11:53:45.826Z,0.75
2019-03-04T11:56:13.819Z,0.90
2019-03-04T11:59:04.459Z,0.90
2019-03-04T12:01:45.010Z,0.90
2019-03-04T12:04:15.666Z,0.62
2019-03-04T12:06:44.656Z,1.07
2019-03-04T12:09:16.180Z,0.90
2019-03-04T12:11:44.060Z,0.90
2019-03-04T12:14:14.608Z,1.20
2019-03-04T12:16:42.606Z,1.20
2019-03-04T12:19:10.315Z,0.98
2019-03-04T12:21:38.023Z,0.70
2019-03-04T12:24:06.090Z,0.90
2019-03-04T12:26:35.396Z,0.70
2019-03-04T12:29:03.250Z,0.82
2019-03-04T12:31:35.678Z,0.80
2019-03-04T12:34:03.376Z,1.12
2019-03-04T12:36:31.286Z,0.88
2019-03-04T12:38:59.317Z,0.90
2019-03-04T12:41:27.299Z,0.88
2019-03-04T12:43:54.992Z,0.82
2019-03-04T12:46:22.967Z,0.60
2019-03-04T12:48:50.965Z,0.80
2019-03-04T12:51:23.032Z,1.00
2019-03-04T12:53:48.695Z,0.75
2019-03-04T12:56:16.761Z,1.10
2019-03-04T12:58:44.785Z,1.30
2019-03-04T13:01:12.451Z,1.10
2019-03-04T13:03:40.290Z,1.22
2019-03-04T13:06:08.195Z,1.45
2019-03-04T13:08:35.995Z,1.52
2019-03-04T13:11:03.825Z,0.90
2019-03-04T13:13:33.073Z,0.88
2019-03-04T13:16:02.004Z,0.70
2019-03-04T13:18:29.951Z,0.60
2019-03-04T13:22:13.169Z,0.80
2019-03-04T13:24:41.205Z,1.00
2019-03-04T13:27:08.865Z,0.80
2019-03-04T13:29:36.578Z,0.85
2019-03-04T13:32:04.315Z,1.00
2019-03-04T13:34:32.096Z,1.05
2019-03-04T13:36:59.852Z,1.05
2019-03-04T13:39:32.690Z,1.27
2019-03-04T13:42:01.122Z,1.10
2019-03-04T13:44:28.751Z,1.05
2019-03-04T13:46:56.466Z,1.07
2019-03-04T13:49:24.121Z,1.32
2019-03-04T13:51:51.847Z,1.37
2019-03-04T13:54:19.648Z,1.42
2019-03-04T13:56:47.399Z,1.32
2019-03-04T13:59:16.883Z,1.27
2019-03-04T14:01:44.556Z,1.60
2019-03-04T14:04:18.079Z,1.22
2019-03-04T14:06:46.090Z,1.10
2019-03-04T14:09:16.768Z,1.20
2019-03-04T14:11:45.817Z,1.40
2019-03-04T14:14:13.676Z,1.30
2019-03-04T14:16:42.247Z,1.35
2019-03-04T14:19:10.060Z,1.32
2019-03-04T14:21:37.990Z,1.15
2019-03-04T14:24:05.720Z,1.37
2019-03-04T14:26:33.576Z,1.40
2019-03-04T14:29:01.267Z,1.67
2019-03-04T14:31:29.136Z,1.20
2019-03-04T14:33:57.031Z,1.47
2019-03-04T14:36:24.882Z,1.05
2019-03-04T14:38:53.699Z,1.35
2019-03-04T14:41:21.445Z,0.98
2019-03-04T14:43:49.094Z,1.47
2019-03-04T14:46:24.264Z,1.47
2019-03-04T14:48:52.245Z,0.93
2019-03-04T14:51:20.056Z,1.05
2019-03-04T14:53:47.918Z,1.27
2019-03-04T14:56:22.373Z,1.40
2019-03-04T14:58:45.610Z,1.52
2019-03-04T15:01:14.686Z,1.32
2019-03-04T15:03:42.970Z,1.40
2019-03-04T15:06:10.728Z,1.20
2019-03-04T15:08:38.515Z,1.47
2019-03-04T15:11:06.162Z,1.57
2019-03-04T15:13:33.986Z,1.37
2019-03-04T15:16:04.499Z,1.80
2019-03-04T15:18:32.920Z,0.95
2019-03-04T15:21:04.892Z,0.23
2019-03-04T15:23:32.715Z,0.40
2019-03-04T15:26:00.671Z,0.35
2019-03-04T15:28:28.727Z,0.53
2019-03-04T15:30:59.471Z,0.50
2019-03-04T15:33:28.325Z,0.40
2019-03-04T15:35:56.189Z,0.40
2019-03-04T15:38:23.909Z,0.50
2019-03-04T15:40:51.645Z,0.62
2019-03-04T15:43:20.620Z,0.40
2019-03-04T15:45:50.826Z,0.33
2019-03-04T15:48:21.697Z,0.53
2019-03-04T15:50:49.355Z,0.90
2019-03-04T15:53:17.068Z,0.90
2019-03-04T15:55:44.814Z,0.55
2019-03-04T15:58:12.718Z,0.50
2019-03-04T16:00:41.203Z,0.70
2019-03-04T16:03:09.059Z,0.60
2019-03-04T16:05:36.663Z,0.60
2019-03-04T16:08:07.813Z,0.60
2019-03-04T16:10:36.062Z,0.70
2019-03-04T16:13:04.387Z,0.57
2019-03-04T16:15:32.671Z,0.53
2019-03-04T16:18:00.866Z,0.50
2019-03-04T16:20:28.742Z,0.45
2019-03-04T16:22:56.488Z,0.57
2019-03-04T16:25:24.663Z,0.60
2019-03-04T16:28:00.214Z,1.22
2019-03-04T16:30:28.035Z,0.78
2019-03-04T16:32:55.674Z,0.60
2019-03-04T16:35:23.514Z,0.70
2019-03-04T16:37:51.174Z,0.75
2019-03-04T16:40:19.145Z,0.80
2019-03-04T16:42:46.915Z,0.88
2019-03-04T16:45:15.607Z,0.65
2019-03-04T16:47:43.435Z,1.07
2019-03-04T16:50:12.042Z,0.98
2019-03-04T16:52:40.131Z,0.85
2019-03-04T16:55:09.638Z,0.72
2019-03-04T16:57:37.598Z,1.10
2019-03-04T17:00:06.968Z,1.02
2019-03-04T17:02:36.418Z,0.90
2019-03-04T17:05:05.571Z,0.90
2019-03-04T17:07:33.792Z,1.00
2019-03-04T17:10:01.909Z,1.00
2019-03-04T17:12:30.166Z,1.00
2019-03-04T17:14:57.836Z,0.90
2019-03-04T17:17:26.047Z,1.00
2019-03-04T17:19:54.023Z,1.20
2019-03-04T17:22:21.765Z,1.20
2019-03-04T17:24:49.601Z,1.27
2019-03-04T17:27:17.300Z,1.10
2019-03-04T17:29:45.277Z,0.98
2019-03-04T17:32:13.205Z,1.25
2019-03-04T17:34:40.996Z,1.00
2019-03-04T17:37:08.853Z,1.02
2019-03-04T17:39:36.555Z,0.80
2019-03-04T17:42:04.970Z,0.90
2019-03-04T17:44:32.905Z,0.85
2019-03-04T17:47:00.827Z,0.80
2019-03-04T17:49:28.604Z,1.20
2019-03-04T17:51:57.407Z,1.47
2019-03-04T17:54:25.060Z,1.10
2019-03-04T17:56:58.293Z,0.80
2019-03-04T17:59:26.191Z,1.20
2019-03-04T18:01:53.959Z,1.12
2019-03-04T18:04:21.643Z,1.35
2019-03-04T18:06:49.881Z,1.07
2019-03-04T18:09:17.719Z,1.00
2019-03-04T18:11:45.473Z,0.95
2019-03-04T18:14:13.327Z,0.95
2019-03-04T18:16:41.122Z,1.10
2019-03-04T18:19:16.890Z,1.12
2019-03-04T18:21:44.759Z,0.90
2019-03-04T18:24:19.890Z,1.40
2019-03-04T18:26:59.818Z,0.85
2019-03-04T18:29:53.902Z,1.02
2019-03-04T18:33:08.720Z,1.30
2019-03-04T18:36:17.192Z,1.00
2019-03-04T18:39:13.824Z,1.07
2019-03-04T18:42:14.625Z,0.90
2019-03-04T18:45:16.732Z,1.17
2019-03-04T18:48:36.914Z,1.35
2019-03-04T18:51:04.860Z,0.90
2019-03-04T18:53:33.703Z,0.90
2019-03-04T18:56:01.368Z,1.00
2019-03-04T18:58:30.121Z,0.78
2019-03-04T19:00:57.883Z,0.90
2019-03-04T19:03:25.655Z,1.12
2019-03-04T19:05:53.551Z,1.10
2019-03-04T19:08:30.486Z,1.00
2019-03-04T19:10:58.401Z,1.10
2019-03-04T19:13:26.410Z,1.02
2019-03-04T19:15:54.227Z,1.30
2019-03-04T19:18:22.126Z,1.20
2019-03-04T19:20:51.609Z,1.60
2019-03-04T19:23:19.471Z,1.30
2019-03-04T19:25:48.389Z,1.90
2019-03-04T19:28:16.916Z,1.92
2019-03-04T19:30:44.948Z,2.37
2019-03-04T19:33:12.582Z,2.37
2019-03-04T19:35:40.357Z,2.58
2019-03-04T19:38:08.094Z,2.80
2019-03-04T19:40:36.190Z,3.30
2019-03-04T19:43:04.032Z,3.30
2019-03-04T19:45:31.661Z,3.50
2019-03-04T19:47:59.641Z,3.80
2019-03-04T19:50:27.378Z,3.50
2019-03-04T19:52:55.204Z,4.20
2019-03-04T19:55:23.128Z,3.85
2019-03-04T19:57:50.929Z,3.75
2019-03-04T20:00:20.080Z,3.98
2019-03-04T20:02:50.760Z,3.33
2019-03-04T20:05:19.242Z,3.60
2019-03-04T20:07:47.614Z,3.00
2019-03-04T20:10:16.197Z,3.10
2019-03-04T20:12:44.398Z,3.10
2019-03-04T20:15:18.749Z,3.27
2019-03-04T20:17:46.837Z,2.45
2019-03-04T20:20:14.935Z,2.50
2019-03-04T20:22:42.724Z,3.00
2019-03-04T20:25:12.486Z,3.08
2019-03-04T20:27:40.460Z,2.60
2019-03-04T20:30:09.625Z,2.52
2019-03-04T20:32:37.747Z,2.40
2019-03-04T20:35:07.216Z,3.45
2019-03-04T20:37:36.649Z,2.50
2019-03-04T20:40:05.946Z,2.00
2019-03-04T20:42:33.985Z,2.10
2019-03-04T20:45:01.748Z,2.50
2019-03-04T20:47:30.124Z,2.00
2019-03-04T20:49:57.824Z,1.80
2019-03-04T20:52:25.791Z,2.08
2019-03-04T20:54:53.882Z,2.25
2019-03-04T20:57:21.718Z,2.02
2019-03-04T20:59:50.060Z,2.30
2019-03-04T21:02:17.897Z,1.60
2019-03-04T21:04:45.519Z,1.90
2019-03-04T21:07:16.766Z,1.80
2019-03-04T21:09:44.543Z,2.00
2019-03-04T21:12:12.499Z,2.17
2019-03-04T21:14:40.360Z,2.08
2019-03-04T21:17:08.070Z,2.02
2019-03-04T21:19:35.900Z,2.00
2019-03-04T21:22:03.933Z,1.82
2019-03-04T21:24:34.322Z,1.90
2019-03-04T21:27:02.262Z,2.40
2019-03-04T21:30:05.758Z,2.05
2019-03-04T21:32:47.842Z,1.82
2019-03-04T21:35:57.653Z,2.37
2019-03-04T21:38:28.520Z,2.75
2019-03-04T21:41:28.097Z,2.50
2019-03-04T21:44:22.485Z,2.52
2019-03-04T21:47:20.941Z,2.80
2019-03-04T21:49:51.745Z,2.75
2019-03-04T21:52:50.628Z,2.80
2019-03-04T21:55:44.626Z,2.80
2019-03-04T21:58:12.561Z,3.00
2019-03-04T22:00:42.335Z,2.83
2019-03-04T22:03:18.991Z,3.40
2019-03-04T22:05:50.474Z,3.08
2019-03-04T22:08:17.322Z,2.72
2019-03-04T22:10:45.139Z,3.22
2019-03-04T22:13:14.165Z,3.30
2019-03-04T22:15:42.001Z,3.02
2019-03-04T22:18:09.938Z,3.40
2019-03-04T22:20:37.799Z,2.92
2019-03-04T22:23:05.600Z,2.90
2019-03-04T22:25:33.422Z,2.95
2019-03-04T22:28:01.509Z,2.55
2019-03-04T22:30:29.347Z,3.12
2019-03-04T22:32:57.243Z,2.80
2019-03-04T22:35:24.998Z,2.98
2019-03-04T22:37:53.734Z,2.62
2019-03-04T22:40:21.560Z,2.42
2019-03-04T22:42:49.458Z,2.20
2019-03-04T22:45:17.687Z,1.80
2019-03-04T22:47:45.947Z,2.30
2019-03-04T22:50:14.907Z,1.67
2019-03-04T22:52:43.726Z,1.35
2019-03-04T22:55:14.250Z,1.10
2019-03-04T22:57:42.249Z,3.92
2019-03-04T23:01:18.095Z,1.35
2019-03-04T23:03:47.518Z,1.40
2019-03-04T23:06:19.232Z,1.47
2019-03-04T23:08:47.097Z,2.30
2019-03-04T23:11:15.102Z,1.80
2019-03-04T23:13:52.556Z,1.80
2019-03-04T23:16:23.072Z,2.17
2019-03-04T23:18:50.793Z,2.62
2019-03-04T23:21:18.553Z,2.10
2019-03-04T23:23:46.239Z,2.33
2019-03-04T23:26:14.108Z,2.17
2019-03-04T23:28:41.886Z,2.30
2019-03-04T23:31:09.789Z,2.60
2019-03-04T23:33:37.487Z,2.50
2019-03-04T23:36:05.259Z,2.37
2019-03-04T23:38:33.013Z,2.55
2019-03-04T23:41:01.095Z,2.42
2019-03-04T23:43:30.845Z,2.30
2019-03-04T23:45:58.649Z,2.35
2019-03-04T23:48:26.390Z,2.30
2019-03-04T23:50:54.246Z,2.20
2019-03-04T23:53:21.926Z,2.05
2019-03-04T23:55:49.798Z,2.12
2019-03-04T23:58:17.546Z,2.40
